Round Top, Texas
Current Conditions -  °F | °C
As of 6:15 AM on Monday 20 Oct 2014 (Local Time) from K3T5 Reporting Station
Haze Haze  
Wind Chill: 62°   Ceiling: Unl
Heat Index: 62°   Visibility: 5mi
Dew Point: 62°   Wind: 0mph
Humidity: 98%   Direction: NA
Pressure: 30.01"   Gusts: NA
Location:  30.06°N, 96.7°W
Report Text: K3T5 201115Z AUTO 00000KT 5SM BR CLR 17/17 A3001 RMK AO2 T01690166
Loading
Personal Weather Stations






























Interactive Weather Map
Tropical Storm Tracking
New forecast layout! Learn more

10-Day Weather Forecast

Advertisements
Track Severe Weather on mobile